Latest Weather Observations for Newcastle Nobbys

IDN60901

Issued at 6:02 pm EST Saturday 5 September 2026 (issued every 10 minutes, with the page automatically refreshed every 10 minutes)

About weather observations | Map of Sydney area stations | Latest observations for Sydney area | Other Formats
Station Details ID: 061055 Name: NEWCASTLE NOBBYS SIGNAL STATION AWS Lat: -32.92 Lon: 151.80 Height: 33.0 m
Data from the previous 72 hours. | See also: Recent months at Newcastle Nobbys
Date/Time
EST
Temp
°C
App
Temp
°C
Dew
Point
°C
Rel
Hum
%
Delta-T
°C
Wind Press
QNH
hPa
Press
MSL
hPa
Rain since
9am
mm
Dir  Spd
km/h
Gust
km/h
Spd
kts
Gust
kts
05/06:00pm 26.1 19.4 9.5 35 9.1 W 35 59 19 32 - - 0.0
05/05:57pm 26.6 20.6 8.6 32 9.8 W 30 59 16 32 - - 0.0
05/05:54pm 27.3 22.3 8.2 30 10.3 WNW 24 57 13 31 - - 0.0
05/05:30pm 28.1 23.3 7.4 27 11.1 NNW 22 28 12 15 - - 0.0
05/05:00pm 28.9 22.6 7.5 26 11.6 NNW 30 46 16 25 - - 0.0
05/04:45pm 29.2 23.0 7.7 26 11.7 NNW 30 44 16 24 - - 0.0
05/04:30pm 29.3 20.5 7.2 25 11.9 NNW 43 67 23 36 - - 0.0
05/04:00pm 29.4 20.6 7.3 25 11.9 NNW 43 65 23 35 - - 0.0
05/03:48pm 29.6 21.2 7.5 25 12.0 NNW 41 56 22 30 - - 0.0
05/03:30pm 29.7 21.4 7.6 25 12.0 NW 41 59 22 32 - - 0.0
05/03:25pm 29.8 22.1 7.1 24 12.2 NNW 37 57 20 31 - - 0.0
05/03:15pm 29.9 22.2 7.2 24 12.3 NW 37 50 20 27 - - 0.0
05/03:03pm 29.7 22.4 7.0 24 12.2 NNW 35 57 19 31 - - 0.0
05/03:00pm 29.7 22.7 7.0 24 12.2 NNW 33 44 18 24 - - 0.0
05/02:53pm 30.0 22.7 7.2 24 12.3 NNW 35 50 19 27 - - 0.0
05/02:38pm 29.8 22.1 7.1 24 12.2 NW 37 57 20 31 - - 0.0
05/02:30pm 29.7 22.0 7.0 24 12.2 NW 37 56 20 30 - - 0.0
05/02:26pm 30.0 21.8 6.6 23 12.5 NW 39 54 21 29 - - 0.0
05/02:15pm 29.9 24.5 7.8 25 12.1 NNW 26 52 14 28 - - 0.0
05/02:11pm 29.0 26.1 9.7 30 10.8 NNE 15 41 8 22 - - 0.0
05/02:00pm 23.2 22.4 13.9 56 5.4 E 11 17 6 9 - - 0.0
05/01:30pm 23.0 22.1 12.6 52 5.9 E 9 15 5 8 - - 0.0
05/01:00pm 21.7 21.9 14.8 65 4.1 SE 7 13 4 7 - - 0.0
05/12:30pm 22.1 21.5 12.4 54 5.5 E 7 11 4 6 - - 0.0
05/12:00pm 21.0 19.4 12.9 60 4.6 E 13 17 7 9 - - 0.0
05/11:30am 22.4 20.9 11.8 51 6.0 E 11 17 6 9 - - 0.0
05/11:00am 23.7 20.6 10.4 43 7.3 NNE 17 20 9 11 - - 0.0
05/10:30am 22.1 18.4 9.6 45 6.7 N 19 22 10 12 - - 0.0
05/10:00am 21.6 18.2 9.2 45 6.6 N 17 20 9 11 - - 0.0
05/09:30am 20.8 16.4 9.1 47 6.2 NNW 22 26 12 14 - - 0.0
05/09:00am 19.2 13.8 8.2 49 5.7 NNW 26 32 14 17 - - 0.0
05/08:30am 18.3 13.8 8.6 53 5.0 NW 22 30 12 16 - - 0.0
05/08:00am 17.3 13.3 8.2 55 4.6 NNW 19 28 10 15 - - 0.0
05/07:30am 16.2 12.2 9.2 63 3.6 NNW 20 26 11 14 - - 0.0
05/07:00am 15.9 12.5 9.1 64 3.5 NNW 17 22 9 12 - - 0.0
05/06:30am 15.5 11.9 8.3 62 3.6 NNW 17 22 9 12 - - 0.0
05/06:00am 15.7 11.5 7.5 58 4.1 NW 19 22 10 12 - - 0.0
05/05:30am 15.9 11.6 7.7 58 4.1 NW 20 24 11 13 - - 0.0
05/05:00am 16.3 11.9 7.3 55 4.5 NW 20 26 11 14 - - 0.0
05/04:30am 16.5 11.7 7.4 55 4.5 NW 22 32 12 17 - - 0.0
05/04:00am 15.5 11.3 7.5 59 4.0 NW 19 24 10 13 - - 0.0
05/03:30am 15.0 11.0 8.3 64 3.4 NW 19 24 10 13 - - 0.0
05/03:00am 15.1 11.9 8.3 64 3.4 NNW 15 20 8 11 - - 0.0
05/02:30am 15.6 12.5 7.4 58 4.1 NW 13 17 7 9 - - 0.0
05/02:00am 16.2 12.4 7.7 57 4.3 NNW 17 20 9 11 - - 0.0
05/01:30am 16.4 12.4 8.1 58 4.2 NW 19 24 10 13 - - 0.0
05/01:00am 16.3 12.1 9.7 65 3.4 NNW 22 28 12 15 - - 0.0
05/12:30am 15.5 14.4 10.1 70 2.8 NNW 6 7 3 4 - - 0.0
05/12:00am 15.2 14.1 10.0 71 2.7 WNW 6 7 3 4 - - 0.0
 
Date/Time
EST
Temp
°C
App
Temp
°C
Dew
Point
°C
Rel
Hum
%
Delta-T
°C
Wind Press
QNH
hPa
Press
MSL
hPa
Rain since
9am
mm
Dir  Spd
km/h
Gust
km/h
Spd
kts
Gust
kts
04/11:30pm 15.1 14.0 10.7 75 2.3 NW 7 9 4 5 - - 0.0
04/11:00pm 15.1 13.7 10.9 76 2.2 NW 9 13 5 7 - - 0.0
04/10:30pm 15.7 14.4 11.1 74 2.5 NNW 9 13 5 7 - - 0.0
04/10:00pm 15.9 14.9 11.1 73 2.6 NW 7 9 4 5 - - 0.0
04/09:30pm 16.0 14.6 11.0 72 2.7 NW 9 13 5 7 - - 0.0
04/09:00pm 16.2 15.2 10.9 71 2.8 NNW 7 11 4 6 - - 0.0
04/08:30pm 16.4 15.1 11.3 72 2.8 N 9 13 5 7 - - 0.0
04/08:00pm 17.1 15.3 12.0 72 2.8 NE 13 17 7 9 - - 0.0
04/07:30pm 17.1 14.8 11.8 71 2.9 NE 15 20 8 11 - - 0.0
04/07:00pm 17.3 15.4 11.8 70 3.0 NE 13 20 7 11 - - 0.0
04/06:30pm 17.3 15.2 11.3 68 3.3 NE 13 20 7 11 - - 0.0
04/06:00pm 17.5 15.0 10.9 65 3.6 NE 15 22 8 12 - - 0.0
04/05:30pm 17.5 14.4 11.5 68 3.3 ENE 19 24 10 13 - - 0.0
04/05:00pm 17.6 12.6 10.9 65 3.6 ENE 28 35 15 19 - - 0.0
04/04:30pm 17.9 13.7 11.0 64 3.7 E 24 30 13 16 - - 0.0
04/04:00pm 18.3 14.3 10.4 60 4.2 ENE 22 28 12 15 - - 0.0
04/03:30pm 18.7 15.0 9.5 55 4.9 E 19 22 10 12 - - 0.0
04/03:00pm 18.7 14.9 9.2 54 5.0 E 19 22 10 12 - - 0.0
04/02:30pm 18.7 14.9 9.2 54 5.0 ESE 19 20 10 11 - - 0.0
04/02:00pm 19.3 16.3 9.2 52 5.3 E 15 19 8 10 - - 0.0
04/01:30pm 18.8 15.8 7.6 48 5.7 ESE 13 17 7 9 - - 0.0
04/01:00pm 18.6 15.1 7.4 48 5.7 SE 15 17 8 9 - - 0.0
04/12:30pm 19.7 17.1 7.8 46 6.1 SE 11 13 6 7 - - 0.0
04/12:00pm 19.3 16.6 7.4 46 6.1 SSE 11 13 6 7 - - 0.0
04/11:30am 19.2 16.4 7.0 45 6.2 SE 11 13 6 7 - - 0.0
04/11:00am 19.0 16.2 6.8 45 6.1 SE 11 13 6 7 - - 0.0
04/10:30am 19.3 16.2 7.4 46 6.1 S 13 15 7 8 - - 0.0
04/10:00am 18.9 15.7 7.0 46 6.0 SSW 13 17 7 9 - - 0.0
04/09:30am 18.4 15.6 5.3 42 6.4 SW 9 19 5 10 - - 0.0
04/09:00am 18.8 15.9 6.3 44 6.2 W 11 20 6 11 - - 0.0
04/08:30am 17.5 13.1 4.8 43 6.1 W 17 24 9 13 - - 0.0
04/08:00am 16.9 14.6 7.5 54 4.7 WNW 9 15 5 8 - - 0.0
04/07:30am 15.0 13.1 7.5 61 3.7 NW 7 9 4 5 - - 0.0
04/07:00am 14.1 12.0 8.3 68 2.9 NW 9 13 5 7 - - 0.0
04/06:30am 13.8 12.0 7.8 67 3.0 NW 7 11 4 6 - - 0.0
04/06:00am 13.9 12.1 7.0 63 3.4 WNW 6 9 3 5 - - 0.0
04/05:30am 13.7 11.3 7.2 65 3.2 WNW 9 13 5 7 - - 0.0
04/05:00am 14.1 12.2 6.9 62 3.5 NW 6 9 3 5 - - 0.0
04/04:30am 14.3 12.0 7.4 63 3.4 WNW 9 13 5 7 - - 0.0
04/04:00am 14.7 13.0 7.5 62 3.6 NW 6 7 3 4 - - 0.0
04/03:30am 15.8 13.2 7.6 58 4.1 W 11 15 6 8 - - 0.0
04/03:00am 16.0 13.1 6.7 54 4.6 WSW 11 19 6 10 - - 0.0
04/02:30am 16.4 13.4 6.0 50 5.0 WSW 11 17 6 9 - - 0.0
04/02:00am 16.9 13.7 6.7 51 5.0 SW 13 19 7 10 - - 0.0
04/01:30am 17.1 14.2 6.6 50 5.2 SW 11 17 6 9 - - 0.0
04/01:00am 17.5 15.5 7.0 50 5.2 W 7 11 4 6 - - 0.0
04/12:30am 17.4 14.8 6.3 48 5.5 SW 9 15 5 8 - - 0.0
04/12:00am 18.4 16.1 5.9 44 6.1 WSW 7 11 4 6 - - 0.0
 
Date/Time
EST
Temp
°C
App
Temp
°C
Dew
Point
°C
Rel
Hum
%
Delta-T
°C
Wind Press
QNH
hPa
Press
MSL
hPa
Rain since
9am
mm
Dir  Spd
km/h
Gust
km/h
Spd
kts
Gust
kts
03/11:30pm 18.9 16.9 6.1 43 6.3 WSW 6 7 3 4 - - 0.0
03/11:00pm 18.7 16.8 6.9 46 5.9 SW 6 9 3 5 - - 0.0
03/10:30pm 18.6 15.2 7.7 49 5.6 NW 15 20 8 11 - - 0.0
03/10:00pm 19.0 15.0 8.1 49 5.6 NW 19 24 10 13 - - 0.0
03/09:30pm 19.3 16.5 8.6 50 5.6 NNW 13 19 7 10 - - 0.0
03/09:00pm 20.1 16.8 8.1 46 6.2 NW 15 19 8 10 - - 0.0
03/08:30pm 20.6 15.1 7.6 43 6.7 NW 26 33 14 18 - - 0.0
03/08:00pm 20.9 16.2 7.9 43 6.8 NW 22 32 12 17 - - 0.0
03/07:30pm 21.4 16.7 7.6 41 7.1 NW 22 28 12 15 - - 0.0
03/07:00pm 22.0 17.2 7.4 39 7.6 NW 22 32 12 17 - - 0.0
03/06:30pm 22.8 18.3 7.0 36 8.2 NW 20 30 11 16 - - 0.0
03/06:00pm 23.3 18.0 7.0 35 8.4 NW 24 33 13 18 - - 0.0
03/05:30pm 24.4 18.3 6.6 32 9.2 NW 28 43 15 23 - - 0.0
03/05:00pm 25.2 18.7 6.4 30 9.7 NNW 30 41 16 22 - - 0.0
03/04:30pm 27.2 21.4 4.3 23 11.6 WNW 24 33 13 18 - - 0.0
03/04:00pm 27.4 21.2 4.5 23 11.6 W 26 33 14 18 - - 0.0
03/03:30pm 28.3 22.4 3.9 21 12.3 WNW 24 33 13 18 - - 0.0
03/03:00pm 28.4 22.6 4.6 22 12.2 WNW 24 33 13 18 - - 0.0
03/02:30pm 28.2 20.8 3.8 21 12.3 WNW 32 43 17 23 - - 0.0
03/02:00pm 28.1 20.6 4.4 22 12.1 WNW 33 43 18 23 - - 0.0
03/01:30pm 27.8 20.1 3.5 21 12.2 W 33 46 18 25 - - 0.0
03/01:24pm 28.6 21.3 5.5 23 12.0 W 33 46 18 25 - - 0.0
03/01:00pm 27.8 19.0 5.4 24 11.6 W 41 61 22 33 - - 0.0
03/12:58pm 28.4 20.4 5.9 24 11.8 WNW 37 56 20 30 - - 0.0
03/12:36pm 26.6 19.3 7.1 29 10.3 W 35 52 19 28 - - 0.0
03/12:30pm 27.6 21.4 8.0 29 10.6 WNW 30 39 16 21 - - 0.0
03/12:26pm 27.9 21.8 8.2 29 10.7 WNW 30 48 16 26 - - 0.0
03/12:11pm 27.8 21.1 8.1 29 10.7 WNW 33 46 18 25 - - 0.0
03/12:00pm 27.7 20.6 8.1 29 10.6 NW 35 52 19 28 - - 0.0
03/11:59am 27.5 20.4 7.9 29 10.6 NW 35 54 19 29 - - 0.0
03/11:54am 27.3 19.0 7.7 29 10.5 NW 41 54 22 29 - - 0.0
03/11:30am 27.1 19.0 8.5 31 10.1 NW 41 59 22 32 - - 0.0
03/11:00am 26.6 17.8 8.1 31 10.0 NW 44 65 24 35 - - 0.0
03/10:30am 26.3 17.3 8.8 33 9.5 NW 46 69 25 37 - - 0.0
03/10:17am 26.0 19.0 8.5 33 9.5 NW 35 63 19 34 - - 0.0
03/10:11am 25.8 18.3 7.9 32 9.6 NW 37 56 20 30 - - 0.0
03/10:01am 25.6 17.0 8.1 33 9.4 NW 43 61 23 33 - - 0.0
03/10:00am 25.6 16.8 8.1 33 9.4 NW 44 61 24 33 - - 0.0
03/09:57am 25.6 16.7 7.7 32 9.5 NW 44 61 24 33 - - 0.0
03/09:52am 25.8 17.5 7.9 32 9.6 NW 41 61 22 33 - - 0.0
03/09:42am 25.1 19.7 9.4 37 8.6 NNW 28 46 15 25 - - 0.0
03/09:30am 22.6 21.1 10.4 46 6.7 NNE 9 15 5 8 - - 0.0
03/09:00am 21.2 19.8 11.0 52 5.6 NE 9 11 5 6 - - 0.0
03/08:30am 19.9 18.3 11.4 58 4.7 NNE 11 13 6 7 - - 0.0
03/08:00am 18.8 16.5 10.4 58 4.5 N 13 15 7 8 - - 0.0
03/07:30am 18.1 15.6 9.7 58 4.4 N 13 17 7 9 - - 0.0
03/07:00am 18.0 15.6 9.9 59 4.3 N 13 15 7 8 - - 0.0
03/06:30am 17.7 15.0 10.3 62 3.9 N 15 17 8 9 - - 0.0
03/06:00am 18.1 15.6 11.0 63 3.8 NNW 15 19 8 10 - - 0.0
03/05:30am 19.4 15.9 10.1 55 5.0 N 19 22 10 12 - - 0.0
03/05:00am 17.8 14.6 11.1 65 3.6 N 19 24 10 13 - - 0.0
03/04:30am 17.3 15.1 10.7 65 3.5 N 13 19 7 10 - - 0.0
03/04:00am 17.2 15.2 10.3 64 3.7 N 11 15 6 8 - - 0.0
03/03:30am 17.4 13.9 10.1 62 3.9 NNW 19 22 10 12 - - 0.0
03/03:00am 18.5 13.7 10.3 59 4.4 NNW 26 33 14 18 - - 0.0
03/02:30am 17.5 14.0 10.1 62 3.9 NNW 19 24 10 13 - - 0.0
03/02:00am 19.3 15.0 9.5 53 5.2 NNW 22 28 12 15 - - 0.0
03/01:30am 18.7 14.9 8.9 53 5.1 NNW 19 24 10 13 - - 0.0
03/01:00am 18.2 15.1 9.0 55 4.8 NNW 15 20 8 11 - - 0.0
03/12:30am 17.6 15.9 9.8 60 4.1 NNW 9 15 5 8 - - 0.0
03/12:00am 18.4 15.3 8.9 54 5.0 NNW 15 17 8 9 - - 0.0
 
Date/Time
EST
Temp
°C
App
Temp
°C
Dew
Point
°C
Rel
Hum
%
Delta-T
°C
Wind Press
QNH
hPa
Press
MSL
hPa
Rain since
9am
mm
Dir  Spd
km/h
Gust
km/h
Spd
kts
Gust
kts
02/11:30pm 19.4 16.6 8.4 49 5.7 NW 13 19 7 10 - - 0.0
02/11:00pm 19.8 16.2 8.5 48 5.9 NW 17 22 9 12 - - 0.0
02/10:30pm 19.4 17.4 8.7 50 5.6 NW 9 17 5 9 - - 0.0
02/10:00pm 19.4 16.9 8.1 48 5.8 NW 11 15 6 8 - - 0.0
02/09:30pm 19.8 17.1 8.8 49 5.8 NW 13 19 7 10 - - 0.0
02/09:00pm 20.1 16.9 8.4 47 6.1 NNW 15 20 8 11 - - 0.0
02/08:30pm 20.6 17.9 8.9 47 6.2 NW 13 17 7 9 - - 0.0
02/08:00pm 20.4 17.9 9.6 50 5.8 NW 13 15 7 8 - - 0.0
02/07:30pm 21.2 19.5 9.8 48 6.1 NW 9 11 5 6 - - 0.0
02/07:00pm 22.1 19.2 9.6 45 6.7 NNW 15 20 8 11 - - 0.0
02/06:30pm 22.0 19.6 10.2 47 6.4 NNW 13 19 7 10 - - 0.0

Latest Capital City Observations: Canberra | Sydney | Melbourne | Brisbane | Adelaide | Perth | Hobart | Darwin

Other formats

Comma delimited format used in spreadsheet applications
http://www.bom.gov.au/fwo/IDN60901/IDN60901.94774.axf

JavaScript Object Notation format (JSON) in row-major order
http://www.bom.gov.au/fwo/IDN60901/IDN60901.94774.json

Data quality

Most of these data are generated automatically and are frequently updated. Quality checks on data are not normally performed. It is possible for incorrect values to appear. Refer to information at About Latest Weather Observations and please check the disclaimer before using these data.